Time;durP1;ratioP1;P1;durP2;ratioP2;P2;SDS_P1;SDS_P2;PMS_P1;PMS_P2;Temp;Humidity;BMP_temperature;BMP_pressure;BME280_temperature;BME280_humidity;BME280_pressure;Samples;Min_cycle;Max_cycle;Signal;HPM_P1;HPM_P2
2022/12/21 00:01:06;;;;;;;177.77;37.58;;;1.50;99.90;;;;;;5014860;28;20029;-50
2022/12/21 00:03:31;;;;;;;115.40;39.65;;;1.90;99.90;;;;;;5015400;28;20497;-51
2022/12/21 00:05:57;;;;;;;121.07;41.88;;;2.20;99.90;;;;;;5015538;28;20030;-51
2022/12/21 00:08:23;;;;;;;127.45;32.63;;;1.90;99.90;;;;;;5015916;28;20449;-50
2022/12/21 00:10:48;;;;;;;113.63;33.25;;;1.30;99.90;;;;;;5015514;28;20045;-51
2022/12/21 00:13:17;;;;;;;83.82;30.50;;;;;;;;;;5029858;28;20069;-51
2022/12/21 00:15:44;;;;;;;80.30;28.45;;;0.70;99.90;;;;;;5015038;28;20116;-52
2022/12/21 00:18:10;;;;;;;104.55;34.10;;;0.80;99.90;;;;;;5015558;28;20053;-51
2022/12/21 00:20:36;;;;;;;96.13;38.95;;;1.20;99.90;;;;;;5013093;28;20038;-52
2022/12/21 00:23:02;;;;;;;124.82;47.25;;;1.60;99.90;;;;;;5015453;28;20151;-51
2022/12/21 00:25:27;;;;;;;96.13;34.10;;;2.00;99.90;;;;;;5015487;28;20052;-51
2022/12/21 00:27:53;;;;;;;86.35;30.52;;;1.50;99.90;;;;;;5015389;28;20049;-50
2022/12/21 00:30:19;;;;;;;116.78;33.97;;;1.10;99.90;;;;;;5015128;28;20470;-51
2022/12/21 00:32:45;;;;;;;99.50;33.00;;;1.40;99.90;;;;;;5014815;28;20034;-53
2022/12/21 00:35:11;;;;;;;109.85;31.92;;;;;;;;;;5015270;28;20033;-51
2022/12/21 00:37:37;;;;;;;69.45;33.22;;;1.30;99.90;;;;;;5015415;28;20044;-52
2022/12/21 00:40:04;;;;;;;68.05;31.48;;;1.10;99.90;;;;;;4996683;28;20038;-52
2022/12/21 00:42:32;;;;;;;67.50;33.13;;;2.00;99.90;;;;;;5013006;28;20124;-52
2022/12/21 00:44:57;;;;;;;57.85;30.90;;;2.00;99.90;;;;;;5014718;28;20060;-51
2022/12/21 00:47:23;;;;;;;68.28;31.00;;;;;;;;;;5012834;28;20413;-50
2022/12/21 00:49:49;;;;;;;66.68;32.65;;;2.10;99.90;;;;;;5014501;28;20038;-51
2022/12/21 00:52:15;;;;;;;61.42;33.00;;;;;;;;;;5014313;28;20037;-52
2022/12/21 00:54:41;;;;;;;59.70;30.40;;;2.10;99.90;;;;;;5014595;28;20087;-52
2022/12/21 00:57:06;;;;;;;58.67;30.80;;;2.10;99.90;;;;;;5014378;28;20034;-50
2022/12/21 00:59:32;;;;;;;54.10;29.00;;;;;;;;;;5014583;28;20026;-51
2022/12/21 01:01:59;;;;;;;59.92;32.72;;;1.80;99.90;;;;;;5014276;28;20037;-51
2022/12/21 01:04:24;;;;;;;57.65;32.42;;;1.60;99.90;;;;;;5014451;28;20068;-51
2022/12/21 01:06:50;;;;;;;56.03;30.25;;;1.90;99.90;;;;;;5014422;28;20053;-50
2022/12/21 01:09:16;;;;;;;57.10;30.50;;;1.80;99.90;;;;;;4996072;28;20081;-50
2022/12/21 01:11:41;;;;;;;57.70;31.52;;;1.90;99.90;;;;;;5012366;28;20084;-51
2022/12/21 01:14:07;;;;;;;43.05;26.65;;;;;;;;;;5014092;28;20037;-52
2022/12/21 01:16:34;;;;;;;45.00;25.25;;;1.40;99.90;;;;;;5014555;28;20022;-52
2022/12/21 01:19:01;;;;;;;40.78;23.38;;;0.60;99.90;;;;;;5014200;28;20049;-51
2022/12/21 01:21:29;;;;;;;40.88;23.13;;;0.70;99.90;;;;;;5014014;28;20032;-53
2022/12/21 01:23:55;;;;;;;63.55;32.90;;;0.90;99.90;;;;;;5011993;28;20037;-50
2022/12/21 01:26:21;;;;;;;55.75;31.55;;;0.60;99.90;;;;;;5014093;28;20110;-50
2022/12/21 01:28:47;;;;;;;53.47;29.80;;;0.60;99.90;;;;;;5013808;28;20125;-50
2022/12/21 01:31:13;;;;;;;51.28;27.52;;;1.30;99.90;;;;;;5011692;28;20125;-52
2022/12/21 01:33:40;;;;;;;50.53;28.50;;;0.90;99.90;;;;;;5014133;28;20030;-51
2022/12/21 01:36:12;;;;;;;56.33;31.15;;;0.90;99.90;;;;;;5013409;28;20227;-51
2022/12/21 01:38:40;;;;;;;;;;;0.90;99.90;;;;;;5014391;28;20030;-52
2022/12/21 01:41:11;;;;;;;60.03;32.85;;;1.20;99.90;;;;;;5013940;28;19944;-50
2022/12/21 01:43:50;;;;;;;55.90;30.65;;;1.10;99.90;;;;;;5011389;28;20125;-52
2022/12/21 01:46:21;;;;;;;57.38;31.75;;;1.10;99.90;;;;;;4993153;28;20408;-50
2022/12/21 01:49:11;;;;;;;54.97;31.35;;;0.80;99.90;;;;;;5010169;28;20053;-51
2022/12/21 01:51:38;;;;;;;65.05;33.35;;;0.90;99.90;;;;;;5007758;28;20053;-51
2022/12/21 01:54:27;;;;;;;65.70;33.88;;;0.80;99.90;;;;;;5006343;28;20046;-52
2022/12/21 01:56:57;;;;;;;63.00;33.47;;;0.80;99.90;;;;;;5006633;28;20026;-57
2022/12/21 01:59:36;;;;;;;67.45;35.17;;;1.20;99.90;;;;;;4977638;28;20053;-54
2022/12/21 02:02:04;;;;;;;60.35;33.10;;;;;;;;;;4991807;28;20042;-57
2022/12/21 02:04:30;;;;;;;64.90;34.22;;;;;;;;;;4977365;28;20038;-55
2022/12/21 02:06:58;;;;;;;67.75;36.83;;;1.30;99.90;;;;;;5010701;28;20282;-54
2022/12/21 02:09:27;;;;;;;65.45;35.40;;;1.70;99.90;;;;;;4971398;28;20046;-54
2022/12/21 02:11:53;;;;;;;68.53;38.22;;;1.50;99.90;;;;;;4969022;28;20039;-54
2022/12/21 02:14:19;;;;;;;68.97;35.90;;;1.50;99.90;;;;;;4979377;28;20030;-55
2022/12/21 02:17:06;;;;;;;69.25;37.03;;;2.30;99.90;;;;;;4990917;28;20036;-54
2022/12/21 02:19:44;;;;;;;76.38;37.80;;;1.70;99.90;;;;;;4990179;28;20109;-54
2022/12/21 02:22:43;;;;;;;88.03;41.22;;;1.60;99.90;;;;;;4990919;28;20034;-52
2022/12/21 02:25:46;;;;;;;89.22;42.63;;;1.20;99.90;;;;;;4988255;28;20112;-52
2022/12/21 02:28:49;;;;;;;81.82;42.70;;;1.60;99.90;;;;;;4990610;28;20511;-53
2022/12/21 02:31:56;;;;;;;80.28;41.75;;;1.20;99.90;;;;;;4993666;28;20023;-55
2022/12/21 02:34:35;;;;;;;90.38;44.45;;;0.60;99.90;;;;;;4992894;28;20450;-55
2022/12/21 02:37:16;;;;;;;86.53;43.60;;;1.20;99.90;;;;;;4990931;28;20029;-52
2022/12/21 02:39:58;;;;;;;100.70;47.28;;;0.90;99.90;;;;;;4994597;28;20397;-51
2022/12/21 02:45:41;;;;;;;78.05;39.35;;;0.90;99.90;;;;;;5009048;28;20069;-54
2022/12/21 02:48:18;;;;;;;89.72;43.03;;;0.30;99.90;;;;;;5009401;28;20054;-53
2022/12/21 02:50:52;;;;;;;87.95;42.45;;;0.40;99.90;;;;;;5009100;28;20061;-55
2022/12/21 02:53:26;;;;;;;84.25;43.70;;;0.70;99.90;;;;;;5007940;28;20169;-55
2022/12/21 02:55:52;;;;;;;80.72;42.75;;;;;;;;;;5010067;28;20440;-55
2022/12/21 02:58:20;;;;;;;76.43;38.42;;;1.80;99.90;;;;;;5010199;28;20424;-54
2022/12/21 03:00:49;;;;;;;78.97;38.47;;;1.90;99.90;;;;;;5010123;28;20041;-54
2022/12/21 03:03:48;;;;;;;78.50;39.38;;;1.00;99.90;;;;;;5007864;28;20152;-50
2022/12/21 03:06:14;;;;;;;73.38;39.22;;;;;;;;;;5009910;28;20458;-51
2022/12/21 03:08:55;;;;;;;67.60;37.13;;;1.90;99.90;;;;;;5012086;28;20037;-53
2022/12/21 03:11:30;;;;;;;66.80;34.22;;;1.70;99.90;;;;;;5012138;28;20500;-56
2022/12/21 03:14:04;;;;;;;66.25;35.90;;;1.60;99.90;;;;;;5013226;28;20058;-56
2022/12/21 03:16:48;;;;;;;58.05;31.83;;;1.80;99.90;;;;;;5015715;28;20021;-54
2022/12/21 03:19:14;;;;;;;59.50;33.22;;;;;;;;;;5016120;28;20410;-54
2022/12/21 03:21:48;;;;;;;60.03;34.15;;;2.00;99.90;;;;;;5015625;28;20018;-55
2022/12/21 03:24:26;;;;;;;59.40;32.33;;;1.20;99.90;;;;;;5016076;28;20013;-53
2022/12/21 03:27:23;;;;;;;52.15;30.60;;;1.40;99.90;;;;;;5015915;28;20083;-52
2022/12/21 03:29:53;;;;;;;57.05;31.60;;;1.80;99.90;;;;;;5032918;28;20080;-55
2022/12/21 03:32:27;;;;;;;53.00;31.42;;;2.00;99.90;;;;;;5033176;28;20432;-52
2022/12/21 03:34:55;;;;;;;50.47;31.98;;;2.00;99.90;;;;;;5033045;28;20029;-53
2022/12/21 03:37:22;;;;;;;52.20;32.47;;;1.90;99.90;;;;;;5033324;28;20025;-54
2022/12/21 03:39:57;;;;;;;49.92;31.25;;;2.10;99.90;;;;;;5032954;28;20038;-55
2022/12/21 03:42:31;;;;;;;57.78;33.35;;;1.80;99.90;;;;;;5033111;28;20021;-53
2022/12/21 03:45:04;;;;;;;61.38;34.80;;;1.70;99.90;;;;;;5032731;28;20068;-55
2022/12/21 03:47:40;;;;;;;52.97;32.45;;;2.00;99.90;;;;;;5033041;28;20037;-53
2022/12/21 03:50:14;;;;;;;56.15;33.08;;;2.00;99.90;;;;;;5017100;28;20420;-55
2022/12/21 03:52:48;;;;;;;52.78;33.28;;;2.40;99.90;;;;;;5032851;28;20071;-52
2022/12/21 03:55:23;;;;;;;51.85;30.60;;;2.20;99.90;;;;;;5016410;28;20029;-52
2022/12/21 03:57:50;;;;;;;53.75;31.73;;;1.80;99.90;;;;;;5032906;28;20048;-52
2022/12/21 04:00:16;;;;;;;53.80;32.00;;;1.70;99.90;;;;;;5030442;28;20053;-53
2022/12/21 04:03:20;;;;;;;50.40;31.75;;;1.50;99.90;;;;;;5032071;28;20481;-55
2022/12/21 04:06:10;;;;;;;49.85;30.33;;;1.50;99.90;;;;;;5002707;28;20046;-53
2022/12/21 04:08:37;;;;;;;58.80;34.80;;;1.50;99.90;;;;;;4971333;28;20121;-51
2022/12/21 04:11:03;;;;;;;51.33;31.05;;;1.50;99.90;;;;;;4973751;28;20050;-54
2022/12/21 04:13:29;;;;;;;52.28;31.33;;;;;;;;;;4949522;28;20085;-54
2022/12/21 04:16:04;;;;;;;55.00;32.95;;;1.40;99.90;;;;;;4957229;28;20081;-54
2022/12/21 04:21:19;;;;;;;54.35;32.92;;;1.50;99.90;;;;;;4971644;28;20060;-54
2022/12/21 04:29:13;;;;;;;57.95;34.90;;;2.60;99.90;;;;;;4973484;28;20082;-54
2022/12/21 04:31:39;;;;;;;53.85;32.45;;;2.20;99.90;;;;;;4973243;28;20030;-54
2022/12/21 04:34:05;;;;;;;53.95;33.47;;;2.60;99.90;;;;;;4973312;28;20039;-54
2022/12/21 04:39:15;;;;;;;47.45;31.27;;;2.80;99.90;;;;;;4973539;28;20042;-54
2022/12/21 04:41:41;;;;;;;54.75;33.40;;;2.50;99.90;;;;;;4999044;28;20042;-55
2022/12/21 04:44:07;;;;;;;53.83;33.65;;;;;;;;;;5014281;28;20105;-52
2022/12/21 04:46:33;;;;;;;54.78;36.15;;;2.50;99.90;;;;;;5013885;28;20045;-51
2022/12/21 04:48:58;;;;;;;51.42;34.33;;;2.50;99.90;;;;;;5014048;28;20025;-51
2022/12/21 04:51:25;;;;;;;52.03;33.50;;;2.80;99.90;;;;;;5012287;28;20030;-55
2022/12/21 04:53:51;;;;;;;50.65;33.75;;;2.60;99.90;;;;;;5014383;28;20025;-53
2022/12/21 04:56:17;;;;;;;51.92;31.80;;;2.80;99.90;;;;;;5014225;28;20026;-51
2022/12/21 04:58:44;;;;;;;47.05;32.55;;;2.70;99.90;;;;;;5013912;28;20018;-54
2022/12/21 05:01:16;;;;;;;52.35;32.22;;;2.70;99.90;;;;;;5013901;28;20116;-55
2022/12/21 05:03:42;;;;;;;52.25;33.72;;;2.10;99.90;;;;;;5014128;28;20026;-55
2022/12/21 05:06:09;;;;;;;60.55;38.55;;;2.10;99.90;;;;;;5013564;28;20038;-53
2022/12/21 05:08:35;;;;;;;54.25;35.00;;;1.70;99.90;;;;;;5013681;28;20075;-53
2022/12/21 05:11:13;;;;;;;54.63;34.17;;;2.40;99.90;;;;;;5014022;28;20354;-53
2022/12/21 05:13:40;;;;;;;61.03;36.38;;;2.00;99.90;;;;;;5011826;28;20073;-54
2022/12/21 05:16:08;;;;;;;71.95;39.78;;;2.10;99.90;;;;;;5013561;28;20100;-54
2022/12/21 05:18:34;;;;;;;77.63;43.03;;;2.60;99.90;;;;;;5031280;28;20044;-51
2022/12/21 05:21:00;;;;;;;82.55;42.30;;;2.00;99.90;;;;;;5031080;28;20029;-54
2022/12/21 05:23:26;;;;;;;73.97;41.33;;;2.00;99.90;;;;;;5031283;28;20088;-53
2022/12/21 05:25:51;;;;;;;76.22;42.72;;;2.50;99.90;;;;;;5014528;28;20071;-54
2022/12/21 05:28:17;;;;;;;69.50;40.80;;;2.50;99.90;;;;;;5031074;28;20065;-52
2022/12/21 05:30:43;;;;;;;72.82;41.38;;;3.00;99.90;;;;;;5031045;28;20377;-51
2022/12/21 05:33:09;;;;;;;70.57;38.53;;;2.80;99.90;;;;;;5031245;28;20048;-53
2022/12/21 05:35:42;;;;;;;68.70;39.70;;;2.60;99.90;;;;;;5031074;28;20025;-52
2022/12/21 05:38:08;;;;;;;78.97;47.42;;;2.50;99.90;;;;;;5014957;28;20076;-55
2022/12/21 05:40:34;;;;;;;75.95;44.58;;;2.70;99.90;;;;;;5031300;28;20041;-50
2022/12/21 05:43:01;;;;;;;69.88;42.17;;;2.80;99.90;;;;;;5031630;28;20026;-54
2022/12/21 05:45:27;;;;;;;90.22;48.08;;;2.20;99.90;;;;;;5031305;28;20232;-53
2022/12/21 05:47:54;;;;;;;95.85;50.30;;;2.80;99.90;;;;;;5015300;28;20113;-52
2022/12/21 05:50:19;;;;;;;109.32;58.88;;;2.60;99.90;;;;;;5016508;28;20140;-54
2022/12/21 05:52:45;;;;;;;90.53;50.83;;;2.00;99.90;;;;;;5012279;28;20069;-53
2022/12/21 05:55:11;;;;;;;86.72;50.50;;;2.10;99.90;;;;;;5010909;28;20054;-55
2022/12/21 05:57:36;;;;;;;88.32;50.88;;;2.20;99.90;;;;;;5010862;28;20026;-51
2022/12/21 06:00:03;;;;;;;88.60;49.63;;;2.40;99.90;;;;;;5010145;28;20030;-54
2022/12/21 06:02:30;;;;;;;90.68;49.45;;;;;;;;;;4993650;28;20045;-54
2022/12/21 06:04:55;;;;;;;93.18;54.05;;;2.60;99.90;;;;;;5013625;28;20021;-52
2022/12/21 06:07:21;;;;;;;79.40;43.03;;;;;;;;;;4975561;28;20038;-51
2022/12/21 06:09:47;;;;;;;77.72;45.47;;;1.90;99.90;;;;;;5012236;28;20034;-50
2022/12/21 06:12:13;;;;;;;70.80;41.80;;;2.50;99.90;;;;;;5010806;28;20033;-53
2022/12/21 06:14:38;;;;;;;77.68;43.10;;;2.40;99.90;;;;;;5013608;28;20034;-52
2022/12/21 06:17:04;;;;;;;82.22;44.85;;;2.40;99.90;;;;;;5013383;28;20540;-52
2022/12/21 06:19:30;;;;;;;75.70;44.70;;;1.80;99.90;;;;;;5013310;28;20036;-52
2022/12/21 06:21:56;;;;;;;82.07;45.10;;;;;;;;;;5012610;28;20485;-52
2022/12/21 06:24:22;;;;;;;78.72;45.03;;;2.70;99.90;;;;;;5011952;28;20034;-52
2022/12/21 06:26:48;;;;;;;73.65;44.22;;;;;;;;;;5011451;28;20450;-52
2022/12/21 06:29:13;;;;;;;82.07;47.85;;;2.90;99.90;;;;;;5013574;28;20038;-53
2022/12/21 06:31:39;;;;;;;78.45;45.45;;;2.80;99.90;;;;;;5013280;28;20389;-53
2022/12/21 06:34:05;;;;;;;91.45;49.92;;;3.00;99.90;;;;;;5013385;28;20113;-53
2022/12/21 06:36:31;;;;;;;88.35;50.00;;;3.00;99.90;;;;;;5013244;28;20034;-52
2022/12/21 06:38:57;;;;;;;103.70;57.92;;;3.10;99.90;;;;;;5013614;28;20370;-52
2022/12/21 06:41:23;;;;;;;103.43;55.88;;;3.30;99.90;;;;;;5010809;28;20038;-52
2022/12/21 06:43:50;;;;;;;100.82;55.78;;;2.90;99.90;;;;;;5013395;28;20073;-53
2022/12/21 06:46:17;;;;;;;91.22;52.10;;;3.20;99.90;;;;;;5013205;28;20069;-52
2022/12/21 06:48:44;;;;;;;106.72;57.42;;;3.00;99.90;;;;;;5013984;28;20376;-53
2022/12/21 06:51:18;;;;;;;94.13;52.08;;;3.40;99.90;;;;;;5017054;28;20462;-52
2022/12/21 06:53:46;;;;;;;89.97;49.58;;;5.00;99.90;;;;;;5016875;28;20153;-52
2022/12/21 06:56:17;;;;;;;81.03;48.28;;;;;;;;;;5015240;28;20212;-52
2022/12/21 06:58:43;;;;;;;75.85;46.38;;;7.80;99.90;;;;;;5016835;28;20030;-52
2022/12/21 07:01:15;;;;;;;77.70;47.38;;;8.00;99.90;;;;;;5015044;28;20038;-52
2022/12/21 07:03:42;;;;;;;84.50;51.08;;;9.30;99.90;;;;;;5016772;28;20021;-52
2022/12/21 07:06:09;;;;;;;85.85;51.97;;;10.10;99.90;;;;;;5016816;28;20037;-52
2022/12/21 07:08:35;;;;;;;87.25;55.90;;;11.00;99.90;;;;;;5017896;28;20474;-52
2022/12/21 07:11:04;;;;;;;81.53;54.47;;;11.80;99.90;;;;;;5017121;28;20029;-53
2022/12/21 07:13:31;;;;;;;91.45;58.47;;;;;;;;;;5016878;28;20080;-52
2022/12/21 07:15:57;;;;;;;89.07;56.85;;;;;;;;;;5016597;28;20034;-54
2022/12/21 07:18:24;;;;;;;103.22;64.10;;;;;;;;;;5016854;28;20026;-54
2022/12/21 07:20:56;;;;;;;101.57;63.63;;;;;;;;;;5030780;28;20392;-53
2022/12/21 07:23:22;;;;;;;93.00;55.95;;;14.80;99.90;;;;;;5031070;28;20118;-52
2022/12/21 07:25:48;;;;;;;79.55;52.38;;;;;;;;;;5016367;28;20057;-52
2022/12/21 07:28:14;;;;;;;73.80;51.53;;;;;;;;;;5016352;28;20033;-54
2022/12/21 07:30:40;;;;;;;68.97;48.22;;;15.90;99.90;;;;;;5016127;28;20034;-53
2022/12/21 07:33:06;;;;;;;62.97;44.10;;;16.20;98.80;;;;;;4997832;28;20414;-53
2022/12/21 07:35:32;;;;;;;61.22;44.20;;;;;;;;;;5016092;28;20523;-54
2022/12/21 07:37:58;;;;;;;63.30;43.75;;;;;;;;;;5016157;28;20111;-52
2022/12/21 07:40:24;;;;;;;65.07;44.42;;;;;;;;;;5014095;28;20500;-52
2022/12/21 07:42:50;;;;;;;65.45;46.22;;;17.30;99.90;;;;;;5015697;28;20060;-53
2022/12/21 07:45:16;;;;;;;64.38;44.70;;;;;;;;;;5015770;28;20113;-53
2022/12/21 07:47:42;;;;;;;63.47;43.55;;;;;;;;;;5015764;28;20133;-52
2022/12/21 07:50:08;;;;;;;61.97;44.65;;;18.00;99.90;;;;;;5015190;28;20038;-52
2022/12/21 07:52:35;;;;;;;73.43;50.15;;;18.00;91.90;;;;;;5030481;28;20120;-52
2022/12/21 07:55:01;;;;;;;77.82;53.00;;;17.20;91.90;;;;;;5015681;28;20030;-52
2022/12/21 07:57:26;;;;;;;94.25;60.60;;;17.50;90.60;;;;;;5015005;28;20172;-54
2022/12/21 07:59:52;;;;;;;97.53;57.63;;;17.20;91.00;;;;;;5014897;28;20117;-54
2022/12/21 08:02:18;;;;;;;79.63;51.83;;;17.80;91.40;;;;;;5015606;28;20441;-54
2022/12/21 08:04:43;;;;;;;68.55;49.45;;;18.70;91.10;;;;;;5015071;28;20026;-53
2022/12/21 08:07:09;;;;;;;68.65;55.78;;;18.00;90.10;;;;;;5015697;28;20022;-54
2022/12/21 08:09:35;;;;;;;67.50;47.53;;;18.10;90.00;;;;;;5015369;28;20045;-54
2022/12/21 08:12:01;;;;;;;67.68;49.47;;;16.90;89.50;;;;;;5013500;28;20091;-53
2022/12/21 08:14:27;;;;;;;72.03;52.22;;;17.10;90.40;;;;;;5015419;28;20030;-54
2022/12/21 08:16:54;;;;;;;66.93;49.22;;;17.70;90.40;;;;;;5014931;28;20034;-51
2022/12/21 08:19:20;;;;;;;76.18;52.92;;;;;;;;;;5013305;28;20118;-51
2022/12/21 08:21:45;;;;;;;76.43;55.50;;;19.70;97.00;;;;;;5015590;28;20057;-54
2022/12/21 08:24:11;;;;;;;78.68;57.55;;;19.80;87.70;;;;;;5014730;28;20057;-51
2022/12/21 08:26:37;;;;;;;78.68;60.13;;;;;;;;;;4996302;28;20044;-50
2022/12/21 08:29:05;;;;;;;73.32;56.08;;;;;;;;;;5014885;28;20436;-50
2022/12/21 08:31:31;;;;;;;76.25;56.60;;;;;;;;;;5015056;28;20058;-50
2022/12/21 08:33:57;;;;;;;77.25;58.30;;;;;;;;;;5014885;28;20474;-52
2022/12/21 08:36:24;;;;;;;77.68;57.65;;;20.80;99.90;;;;;;5026496;28;20042;-51
2022/12/21 08:38:51;;;;;;;76.75;57.95;;;;;;;;;;5007603;28;20066;-50
2022/12/21 08:41:17;;;;;;;73.53;56.30;;;21.20;83.30;;;;;;5002455;28;20034;-50
2022/12/21 08:43:43;;;;;;;76.15;56.55;;;22.10;99.90;;;;;;5030576;28;20072;-49
2022/12/21 08:46:10;;;;;;;70.97;55.40;;;;;;;;;;5027012;28;20049;-51
2022/12/21 08:48:37;;;;;;;72.50;57.92;;;21.80;82.80;;;;;;5030284;28;20140;-50
2022/12/21 08:51:03;;;;;;;71.05;57.20;;;;;;;;;;5030890;28;20029;-51
2022/12/21 08:53:29;;;;;;;73.57;58.40;;;;;;;;;;5031040;28;20176;-49
2022/12/21 08:55:55;;;;;;;79.10;61.67;;;22.00;79.70;;;;;;5030885;28;20037;-50
2022/12/21 08:58:22;;;;;;;77.50;59.53;;;;;;;;;;5030900;28;20173;-49
2022/12/21 09:00:50;;;;;;;80.20;66.32;;;;;;;;;;5030736;28;20029;-50
2022/12/21 09:03:17;;;;;;;75.50;60.38;;;;;;;;;;5029497;28;20045;-51
2022/12/21 09:05:43;;;;;;;76.35;61.83;;;;;;;;;;4994358;28;20073;-55
2022/12/21 09:08:09;;;;;;;69.55;56.20;;;22.30;79.30;;;;;;5027885;28;20505;-52
2022/12/21 09:10:35;;;;;;;68.40;54.22;;;22.00;79.30;;;;;;5028701;28;20071;-51
2022/12/21 09:13:02;;;;;;;73.63;56.40;;;22.20;79.40;;;;;;5029067;28;20053;-50
2022/12/21 09:15:28;;;;;;;70.30;58.75;;;22.40;79.50;;;;;;5015720;28;20500;-50
2022/12/21 09:17:53;;;;;;;67.32;55.33;;;22.20;80.50;;;;;;5012974;28;20021;-52
2022/12/21 09:20:19;;;;;;;66.72;55.00;;;22.00;86.60;;;;;;5013156;28;20601;-52
2022/12/21 09:22:45;;;;;;;64.38;54.42;;;21.50;80.00;;;;;;5012555;28;20022;-53
2022/12/21 09:25:12;;;;;;;67.38;54.55;;;;;;;;;;5013167;28;20030;-54
2022/12/21 09:27:39;;;;;;;69.07;56.17;;;;;;;;;;5013071;28;20081;-52
2022/12/21 09:30:07;;;;;;;62.40;54.67;;;;;;;;;;5012850;28;20049;-52
2022/12/21 09:32:35;;;;;;;361.83;290.23;;;21.10;88.10;;;;;;5011559;28;20437;-50
2022/12/21 09:35:01;;;;;;;80.88;68.90;;;21.30;80.60;;;;;;5012887;28;20052;-50
2022/12/21 09:37:28;;;;;;;75.38;61.33;;;21.50;81.10;;;;;;5012986;28;20465;-50
2022/12/21 09:39:54;;;;;;;83.88;64.15;;;20.90;89.50;;;;;;5012373;28;20033;-50
2022/12/21 09:42:20;;;;;;;170.30;145.90;;;;;;;;;;5012703;28;20034;-51
2022/12/21 09:45:14;;;;;;;94.63;77.60;;;22.10;98.80;;;;;;5009732;28;20061;-51
2022/12/21 09:47:56;;;;;;;77.60;60.85;;;22.10;99.90;;;;;;5006255;28;20110;-52
2022/12/21 09:50:24;;;;;;;74.73;60.70;;;;;;;;;;5009142;28;20038;-53
2022/12/21 09:52:52;;;;;;;76.07;60.13;;;;;;;;;;5011691;28;20263;-50
2022/12/21 09:55:21;;;;;;;75.03;60.58;;;;;;;;;;5008193;28;20046;-53
2022/12/21 09:57:50;;;;;;;70.13;58.55;;;;;;;;;;5005345;28;20473;-53
2022/12/21 10:00:17;;;;;;;74.40;58.22;;;;;;;;;;5019937;28;20041;-50
2022/12/21 10:02:51;;;;;;;67.28;56.85;;;;;;;;;;5011268;28;20033;-50
2022/12/21 10:05:26;;;;;;;69.40;57.00;;;;;;;;;;5028059;28;20045;-54
2022/12/21 10:07:55;;;;;;;67.95;55.60;;;;;;;;;;5025909;28;20451;-48
2022/12/21 10:10:24;;;;;;;66.45;54.80;;;;;;;;;;5027749;28;20130;-51
2022/12/21 10:13:22;;;;;;;63.55;53.80;;;;;;;;;;5010522;28;20037;-56
2022/12/21 10:15:51;;;;;;;73.40;57.95;;;;;;;;;;4968160;28;20047;-48
2022/12/21 10:18:37;;;;;;;63.72;53.90;;;;;;;;;;4968291;28;20050;-50
2022/12/21 10:21:26;;;;;;;66.88;53.08;;;;;;;;;;4969219;28;20039;-48
2022/12/21 10:23:53;;;;;;;65.32;51.90;;;;;;;;;;4927081;29;20055;-47
2022/12/21 10:26:21;;;;;;;67.03;51.63;;;;;;;;;;4929538;29;20040;-46
2022/12/21 10:29:01;;;;;;;68.05;51.33;;;;;;;;;;4930715;29;20082;-50
2022/12/21 10:31:31;;;;;;;67.07;51.15;;;;;;;;;;4929599;29;20043;-50
2022/12/21 10:33:58;;;;;;;61.65;50.55;;;;;;;;;;4930260;29;20098;-51
2022/12/21 10:36:32;;;;;;;68.13;50.15;;;;;;;;;;4930053;29;20432;-50
2022/12/21 10:38:59;;;;;;;70.95;52.67;;;;;;;;;;4930184;29;20077;-50
2022/12/21 10:41:27;;;;;;;68.25;51.60;;;;;;;;;;4930735;29;20536;-49
2022/12/21 10:43:54;;;;;;;67.80;51.38;;;;;;;;;;4930691;29;20073;-55
2022/12/21 10:46:24;;;;;;;72.10;51.67;;;17.80;99.90;;;;;;4928035;29;20051;-51
2022/12/21 10:48:56;;;;;;;70.22;54.15;;;17.90;85.90;;;;;;4930082;29;20078;-55
2022/12/21 10:51:28;;;;;;;69.93;52.60;;;;;;;;;;4951521;28;20125;-55
2022/12/21 10:54:00;;;;;;;64.93;51.90;;;18.00;86.30;;;;;;4972342;28;20555;-54
2022/12/21 10:56:28;;;;;;;68.65;50.30;;;17.80;86.40;;;;;;4958962;28;20082;-57
2022/12/21 10:58:55;;;;;;;65.20;50.25;;;;;;;;;;4974451;28;20125;-52
2022/12/21 11:01:23;;;;;;;66.82;49.78;;;;;;;;;;4995456;28;20125;-55
2022/12/21 11:04:27;;;;;;;69.68;50.25;;;17.70;99.90;;;;;;5001390;28;20037;-55
2022/12/21 11:07:01;;;;;;;70.60;48.13;;;;;;;;;;5005807;28;20030;-55
2022/12/21 11:09:38;;;;;;;66.60;48.50;;;;;;;;;;5001317;28;20065;-55
2022/12/21 11:12:25;;;;;;;65.97;49.33;;;17.40;87.00;;;;;;4998706;28;20030;-53
2022/12/21 11:14:51;;;;;;;69.30;47.03;;;;;;;;;;5010094;28;20037;-54
2022/12/21 11:17:20;;;;;;;68.43;49.83;;;17.30;99.90;;;;;;4994061;28;20386;-57
2022/12/21 11:19:49;;;;;;;67.75;49.00;;;17.50;88.00;;;;;;5003337;28;20464;-55
2022/12/21 11:22:21;;;;;;;62.60;46.70;;;17.80;87.30;;;;;;5001805;28;20113;-55
2022/12/21 11:24:47;;;;;;;;;;;17.70;86.50;;;;;;5003536;28;20088;-54
2022/12/21 11:27:26;;;;;;;61.88;47.00;;;17.70;86.60;;;;;;5002311;28;19910;-54
2022/12/21 11:29:56;;;;;;;63.72;47.30;;;17.70;94.70;;;;;;5009969;28;20050;-54
2022/12/21 11:32:23;;;;;;;58.92;46.00;;;18.00;86.80;;;;;;5006143;28;20035;-56
2022/12/21 11:34:56;;;;;;;60.10;44.40;;;18.10;94.30;;;;;;5002378;28;20026;-53
2022/12/21 11:37:36;;;;;;;64.90;47.20;;;17.80;87.50;;;;;;5001932;28;20026;-57
2022/12/21 11:40:11;;;;;;;66.93;47.40;;;;;;;;;;5006583;28;20030;-52
2022/12/21 11:42:56;;;;;;;69.85;50.75;;;;;;;;;;5008280;28;20036;-54
2022/12/21 11:45:31;;;;;;;67.68;50.33;;;;;;;;;;5010220;28;20124;-56
2022/12/21 11:48:20;;;;;;;71.75;51.47;;;18.70;97.60;;;;;;5005665;28;20494;-56
2022/12/21 11:51:07;;;;;;;70.05;52.03;;;18.70;98.30;;;;;;5005161;28;20034;-56
2022/12/21 11:53:35;;;;;;;79.60;57.47;;;19.10;98.40;;;;;;5012883;28;20155;-57
2022/12/21 11:56:30;;;;;;;83.82;63.17;;;18.00;99.60;;;;;;5007394;28;20041;-56
2022/12/21 11:59:02;;;;;;;85.70;63.22;;;;;;;;;;5004393;28;20121;-57
2022/12/21 12:01:41;;;;;;;85.47;65.18;;;;;;;;;;5004566;28;20030;-57
2022/12/21 12:04:10;;;;;;;82.18;60.63;;;;;;;;;;5007108;28;20108;-57
2022/12/21 12:06:57;;;;;;;112.40;80.00;;;17.70;88.60;;;;;;5002484;28;20057;-57
2022/12/21 12:09:29;;;;;;;107.13;75.78;;;17.20;90.50;;;;;;5006746;28;20402;-57
2022/12/21 12:12:00;;;;;;;;;;;17.10;90.60;;;;;;5008456;28;20041;-56
2022/12/21 12:15:03;;;;;;;109.25;78.80;;;17.40;90.50;;;;;;5002690;28;20277;-56
2022/12/21 12:17:52;;;;;;;109.00;80.43;;;17.30;90.70;;;;;;5007408;28;20041;-56
2022/12/21 12:20:55;;;;;;;97.78;68.95;;;17.40;90.70;;;;;;5002201;28;20089;-51
2022/12/21 12:24:02;;;;;;;98.38;67.90;;;17.00;90.90;;;;;;5010373;28;20018;-49
2022/12/21 12:27:01;;;;;;;96.05;69.13;;;16.50;91.30;;;;;;5001962;28;20030;-56
2022/12/21 12:29:33;;;;;;;106.88;74.28;;;16.30;91.50;;;;;;5009374;28;20378;-56
2022/12/21 12:32:28;;;;;;;115.00;80.88;;;15.70;91.80;;;;;;5001221;28;20057;-57
2022/12/21 12:35:03;;;;;;;118.32;80.95;;;15.80;95.30;;;;;;5009546;28;20038;-56
2022/12/21 12:37:29;;;;;;;114.15;79.90;;;;;;;;;;5002251;28;20038;-56
2022/12/21 12:40:22;;;;;;;115.03;81.95;;;15.60;92.10;;;;;;5003987;28;20030;-56
2022/12/21 12:42:58;;;;;;;121.80;83.40;;;15.10;92.70;;;;;;5005195;28;20091;-55
2022/12/21 12:45:33;;;;;;;114.97;80.30;;;;;;;;;;5005809;28;20370;-56
2022/12/21 12:48:10;;;;;;;117.20;81.97;;;15.20;99.90;;;;;;5010974;28;20040;-56
2022/12/21 12:51:04;;;;;;;106.40;76.45;;;14.80;93.00;;;;;;5010677;28;20038;-56
2022/12/21 12:53:33;;;;;;;106.38;74.82;;;15.20;93.10;;;;;;5010196;28;20038;-56
2022/12/21 12:56:19;;;;;;;88.30;60.25;;;;;;;;;;5007331;28;20064;-57
2022/12/21 12:58:49;;;;;;;101.00;69.75;;;14.30;98.00;;;;;;5006757;28;20034;-57
2022/12/21 13:01:21;;;;;;;91.90;62.35;;;14.70;98.30;;;;;;5006622;28;20446;-56
2022/12/21 13:04:17;;;;;;;88.65;59.05;;;14.60;98.70;;;;;;5008749;28;20029;-57
2022/12/21 13:06:52;;;;;;;69.40;49.50;;;14.10;92.70;;;;;;5008742;28;20029;-58
2022/12/21 13:09:57;;;;;;;78.28;52.80;;;14.10;92.90;;;;;;5005017;28;20050;-58
2022/12/21 13:12:25;;;;;;;82.10;57.38;;;14.30;93.50;;;;;;5003479;28;20037;-59
2022/12/21 13:15:18;;;;;;;86.45;55.10;;;13.90;97.90;;;;;;5003924;28;20112;-58
2022/12/21 13:17:59;;;;;;;72.50;51.35;;;14.10;97.40;;;;;;5008121;28;20057;-57
2022/12/21 13:20:27;;;;;;;67.50;47.75;;;13.70;96.70;;;;;;4992915;28;20096;-57
2022/12/21 13:23:07;;;;;;;69.07;49.40;;;14.00;97.30;;;;;;5009165;28;20128;-57
2022/12/21 13:25:44;;;;;;;69.00;49.17;;;14.30;97.80;;;;;;5009358;28;20058;-57
2022/12/21 13:28:26;;;;;;;66.15;43.63;;;14.20;94.40;;;;;;5009423;28;20099;-57
2022/12/21 13:30:55;;;;;;;65.65;46.25;;;14.00;94.50;;;;;;5009967;28;20069;-57
2022/12/21 13:33:22;;;;;;;66.10;45.70;;;14.00;94.60;;;;;;5009351;28;20117;-56